This is the latest recevied weather packets stored in our database for station/object KC1BRV. If no packets are shown the sender has not sent any weather packets the latest 10 day(s).
| Time | Temp. | Humidity | Pressure | Rain* | Wind** | Luminosity | Snow |
|---|---|---|---|---|---|---|---|
| 1777987754 | 18.89° C | 64% | 1012.6 hPa | 0 mm | - | 257 W/m² | - |
| 1777987452 | 17.78° C | 68% | 1012.6 hPa | 0 mm | - | 423 W/m² | - |
| 1777987149 | 17.78° C | 67% | 1012.6 hPa | 0 mm | - | 345 W/m² | - |
| 1777986846 | 17.78° C | 68% | 1012.6 hPa | 0 mm | - | 108 W/m² | - |
| 1777986544 | 17.22° C | 69% | 1012.5 hPa | 0 mm | - | 189 W/m² | - |
| 1777986241 | 16.67° C | 70% | 1012.5 hPa | 0 mm | - | 186 W/m² | - |
| 1777985938 | 16.67° C | 71% | 1012.5 hPa | 0 mm | - | 145 W/m² | - |
| 1777985636 | 17.22° C | 70% | 1012.5 hPa | 0 mm | - | 152 W/m² | - |
| 1777985332 | 16.67° C | 72% | 1012.7 hPa | 0 mm | - | 298 W/m² | - |
| 1777985029 | 15.56° C | 75% | 1012.6 hPa | 0 mm | - | 274 W/m² | - |
| 1777984725 | 15.56° C | 75% | 1012.5 hPa | 0 mm | - | 124 W/m² | - |
| 1777984422 | 15.56° C | 76% | 1012.8 hPa | 0 mm | - | 169 W/m² | - |
| 1777984118 | 15.56° C | 76% | 1012.6 hPa | 0 mm | - | 150 W/m² | - |
| 1777983816 | 15.56° C | 76% | 1012.6 hPa | 0 mm | - | 130 W/m² | - |
| 1777983512 | 15° C | 78% | 1012.4 hPa | 0 mm | - | 124 W/m² | - |
| 1777983209 | 14.44° C | 78% | 1012.4 hPa | 0 mm | - | 140 W/m² | - |
| 1777982905 | 14.44° C | 78% | 1012.5 hPa | 0 mm | - | 75 W/m² | - |
| 1777982601 | 14.44° C | 79% | 1012.5 hPa | 0 mm | - | 133 W/m² | - |
| 1777982300 | 14.44° C | 79% | 1012.5 hPa | 0 mm | - | 99 W/m² | - |
| 1777981997 | 13.89° C | 80% | 1012.4 hPa | 0 mm | - | 172 W/m² | - |
| 1777981695 | 13.89° C | 80% | 1012.5 hPa | 0 mm | - | 81 W/m² | - |
| 1777981391 | 13.89° C | 81% | 1012.2 hPa | 0 mm | - | 131 W/m² | - |
| 1777981088 | 13.33° C | 82% | 1012.2 hPa | 0 mm | - | 102 W/m² | - |
| 1777980784 | 13.33° C | 83% | 1012.4 hPa | 0 mm | - | 77 W/m² | - |
| 1777980480 | 13.33° C | 84% | 1012.2 hPa | 0 mm | - | 84 W/m² | - |
* Rain latest hour (hover to see other rain measurements)
** Current wind speed in m/s (hover to see current wind gust speed)